Time;durP1;ratioP1;P1;durP2;ratioP2;P2;SDS_P1;SDS_P2;PMS_P1;PMS_P2;Temp;Humidity;BMP_temperature;BMP_pressure;BME280_temperature;BME280_humidity;BME280_pressure;Samples;Min_cycle;Max_cycle;Signal;HPM_P1;HPM_P2
2023/11/20 00:01:07;;;;;;;8.70;6.17;;;;;;;10.67;100.00;100355.28;6107397;28;20312;-73
2023/11/20 00:04:28;;;;;;;6.10;4.17;;;;;;;10.63;100.00;100353.03;6110403;28;20227;-73
2023/11/20 00:07:49;;;;;;;4.70;4.13;;;;;;;10.66;100.00;100350.03;6108271;28;20244;-73
2023/11/20 00:11:13;;;;;;;6.77;4.20;;;;;;;10.65;100.00;100337.56;6126764;28;20232;-73
2023/11/20 00:14:34;;;;;;;8.83;4.50;;;;;;;10.67;100.00;100339.09;6119698;28;20509;-73
2023/11/20 00:17:55;;;;;;;4.70;3.43;;;;;;;10.69;100.00;100334.41;6115490;28;20315;-73
2023/11/20 00:21:16;;;;;;;3.80;2.77;;;;;;;10.66;100.00;100340.09;6117381;28;20287;-73
2023/11/20 00:24:40;;;;;;;4.70;2.77;;;;;;;10.65;100.00;100337.56;6108054;28;20231;-72
2023/11/20 00:28:02;;;;;;;5.00;3.17;;;;;;;10.71;100.00;100331.56;6106347;28;20244;-74
2023/11/20 00:31:23;;;;;;;3.60;3.00;;;;;;;10.80;100.00;100331.53;6107900;28;20255;-74
2023/11/20 00:34:46;;;;;;;3.50;2.23;;;;;;;10.83;100.00;100330.34;6105335;28;20239;-73
2023/11/20 00:38:07;;;;;;;5.47;3.63;;;;;;;10.88;100.00;100328.06;6106834;28;20227;-73
2023/11/20 00:41:31;;;;;;;4.27;3.57;;;;;;;11.06;100.00;100329.78;6106814;28;20243;-73
2023/11/20 00:44:53;;;;;;;6.70;4.07;;;;;;;11.08;100.00;100327.78;6106525;28;20371;-73
2023/11/20 00:48:14;;;;;;;5.63;3.77;;;;;;;10.94;100.00;100327.44;6107281;28;21011;-73
2023/11/20 00:51:35;;;;;;;7.30;5.73;;;;;;;10.97;100.00;100327.97;6102951;28;20504;-73
2023/11/20 00:54:57;;;;;;;5.33;4.83;;;;;;;10.92;100.00;100324.91;6116206;28;20235;-74
2023/11/20 00:58:17;;;;;;;7.67;4.37;;;;;;;10.92;100.00;100327.59;6101722;28;20236;-73
2023/11/20 01:01:40;;;;;;;10.77;4.10;;;;;;;10.91;100.00;100327.75;6115903;28;20228;-73
2023/11/20 01:05:00;;;;;;;5.20;3.67;;;;;;;10.84;100.00;100324.81;6108250;28;20232;-72
2023/11/20 01:08:21;;;;;;;5.47;3.27;;;;;;;10.82;100.00;100329.53;6103775;28;20235;-73
2023/11/20 01:11:44;;;;;;;6.87;3.83;;;;;;;10.89;100.00;100335.16;6101874;28;20281;-73
2023/11/20 01:15:06;;;;;;;6.00;3.00;;;;;;;10.81;100.00;100325.09;6107360;28;20585;-73
2023/11/20 01:18:29;;;;;;;10.23;5.27;;;;;;;10.80;100.00;100326.13;6101848;28;20232;-74
2023/11/20 01:21:50;;;;;;;5.03;3.93;;;;;;;10.85;100.00;100322.94;6107497;28;20239;-73
2023/11/20 01:25:11;;;;;;;5.93;3.90;;;;;;;10.96;100.00;100320.03;6116624;28;20236;-73
2023/11/20 01:28:32;;;;;;;4.13;3.43;;;;;;;10.76;100.00;100321.19;6102266;28;20236;-73
2023/11/20 01:31:53;;;;;;;3.93;3.10;;;;;;;10.82;100.00;100324.13;6099061;28;20621;-74
2023/11/20 01:35:15;;;;;;;4.93;3.77;;;;;;;10.96;100.00;100320.91;6107204;28;20240;-74
2023/11/20 01:38:36;;;;;;;6.33;3.80;;;;;;;11.01;100.00;100332.06;6107915;28;20236;-74
2023/11/20 01:41:57;;;;;;;4.03;2.97;;;;;;;11.06;100.00;100327.06;6117494;28;20243;-74
2023/11/20 01:45:18;;;;;;;3.50;2.63;;;;;;;10.97;100.00;100327.16;6104789;28;20733;-73
2023/11/20 01:48:40;;;;;;;3.87;2.87;;;;;;;11.11;100.00;100321.22;6104822;28;20236;-73
2023/11/20 01:52:04;;;;;;;2.80;2.60;;;;;;;11.21;100.00;100332.78;6107168;28;20808;-72
2023/11/20 01:55:25;;;;;;;4.17;2.83;;;;;;;11.18;100.00;100327.72;6104549;28;20259;-72
2023/11/20 01:58:48;;;;;;;5.73;4.20;;;;;;;11.08;100.00;100335.00;6105103;28;20216;-72
2023/11/20 02:02:09;;;;;;;3.07;2.47;;;;;;;11.15;100.00;100331.56;6106696;28;20314;-73
2023/11/20 02:05:30;;;;;;;3.27;2.33;;;;;;;11.16;100.00;100330.53;6112097;28;20231;-73
2023/11/20 02:08:52;;;;;;;6.83;4.73;;;;;;;11.18;100.00;100336.63;6109226;28;20243;-73
2023/11/20 02:12:13;;;;;;;3.90;2.63;;;;;;;11.22;100.00;100327.22;6108622;28;20251;-73
2023/11/20 02:15:34;;;;;;;4.57;4.17;;;;;;;11.35;100.00;100334.13;6105040;28;20247;-73
2023/11/20 02:18:55;;;;;;;4.07;3.03;;;;;;;11.10;100.00;100333.84;6118006;28;20239;-73
2023/11/20 02:22:16;;;;;;;3.27;2.60;;;;;;;11.11;100.00;100332.00;6107994;28;20239;-72
2023/11/20 02:25:38;;;;;;;4.93;3.50;;;;;;;11.16;100.00;100329.69;6116805;28;20565;-72
2023/11/20 02:29:07;;;;;;;5.23;3.90;;;;;;;11.15;100.00;100330.72;6110097;28;20255;-74
2023/11/20 02:32:29;;;;;;;3.57;3.27;;;;;;;11.08;100.00;100330.47;6111636;28;20239;-72
2023/11/20 02:35:50;;;;;;;3.53;3.27;;;;;;;11.08;100.00;100337.69;6098656;28;20325;-73
2023/11/20 02:39:12;;;;;;;3.67;2.77;;;;;;;10.96;100.00;100329.00;6123394;28;20236;-73
2023/11/20 02:42:33;;;;;;;4.17;3.77;;;;;;;10.91;100.00;100333.97;6100549;28;20762;-72
2023/11/20 02:45:55;;;;;;;8.07;3.67;;;;;;;10.91;100.00;100342.06;6118206;28;20230;-73
2023/11/20 02:49:17;;;;;;;5.80;3.80;;;;;;;10.99;100.00;100342.16;6107867;28;20644;-73
2023/11/20 02:52:38;;;;;;;4.80;4.40;;;;;;;11.08;100.00;100335.84;6107613;28;20613;-73
2023/11/20 02:55:59;;;;;;;3.37;3.07;;;;;;;11.13;100.00;100338.97;6109853;28;20602;-73
2023/11/20 02:59:20;;;;;;;4.23;3.03;;;;;;;11.16;100.00;100338.63;6120482;28;20232;-73
2023/11/20 03:02:41;;;;;;;5.73;3.67;;;;;;;11.08;100.00;100330.47;6109640;28;20331;-74
2023/11/20 03:06:03;;;;;;;3.50;2.87;;;;;;;11.08;100.00;100327.78;6109852;28;20319;-73
2023/11/20 03:09:24;;;;;;;5.43;3.87;;;;;;;10.91;100.00;100328.59;6109108;28;20236;-73
2023/11/20 03:12:45;;;;;;;3.53;3.23;;;;;;;10.87;100.00;100332.59;6115551;28;20232;-73
2023/11/20 03:16:08;;;;;;;5.43;4.23;;;;;;;10.96;100.00;100328.13;6124306;28;20232;-74
2023/11/20 03:19:28;;;;;;;4.67;3.90;;;;;;;10.96;100.00;100326.28;6109437;28;20235;-73
2023/11/20 03:22:51;;;;;;;4.70;3.87;;;;;;;10.88;100.00;100323.50;6112013;28;20228;-73
2023/11/20 03:26:11;;;;;;;4.20;3.80;;;;;;;10.88;100.00;100334.31;6109868;28;20247;-74
2023/11/20 03:29:32;;;;;;;6.47;4.40;;;;;;;10.98;100.00;100332.38;6121472;28;20235;-74
2023/11/20 03:32:53;;;;;;;6.80;4.60;;;;;;;11.05;100.00;100338.03;6104636;28;20232;-73
2023/11/20 03:36:15;;;;;;;4.17;3.40;;;;;;;11.05;100.00;100338.03;6107879;28;20610;-74
2023/11/20 03:39:37;;;;;;;4.90;4.47;;;;;;;11.05;100.00;100333.47;6110222;28;20344;-73
2023/11/20 03:42:58;;;;;;;4.67;4.00;;;;;;;10.98;100.00;100337.78;6120586;28;20231;-74
2023/11/20 03:46:19;;;;;;;5.23;4.00;;;;;;;10.97;100.00;100336.06;6097857;28;20341;-74
2023/11/20 03:49:40;;;;;;;7.67;5.33;;;;;;;10.94;100.00;100325.59;6077007;28;20227;-73
2023/11/20 03:53:00;;;;;;;4.67;4.17;;;;;;;10.91;100.00;100333.97;6119523;28;20595;-72
2023/11/20 03:56:23;;;;;;;5.10;4.70;;;;;;;10.99;100.00;100327.84;6108967;28;20622;-72
2023/11/20 03:59:44;;;;;;;5.60;4.57;;;;;;;10.95;100.00;100329.16;6117884;28;20235;-74
2023/11/20 04:03:05;;;;;;;6.57;4.87;;;;;;;11.00;100.00;100329.53;6107713;28;20232;-72
2023/11/20 04:06:26;;;;;;;5.57;4.93;;;;;;;11.14;100.00;100318.19;6098775;28;20322;-73
2023/11/20 04:09:47;;;;;;;7.07;4.20;;;;;;;10.98;100.00;100324.28;6110183;28;20237;-73
2023/11/20 04:13:10;;;;;;;5.10;4.30;;;;;;;10.91;100.00;100330.47;6102943;28;20243;-73
2023/11/20 04:16:33;;;;;;;6.53;5.93;;;;;;;10.93;100.00;100323.88;6107219;28;20219;-73
2023/11/20 04:19:54;;;;;;;8.20;4.40;;;;;;;10.88;100.00;100333.44;6108740;28;20232;-73
2023/11/20 04:23:16;;;;;;;7.10;4.57;;;;;;;10.80;100.00;100339.59;6104620;28;20330;-73
2023/11/20 04:26:38;;;;;;;5.27;4.77;;;;;;;10.74;100.00;100332.13;6107096;28;20232;-73
2023/11/20 04:30:01;;;;;;;4.27;3.83;;;;;;;10.75;100.00;100336.50;6120400;28;20240;-73
2023/11/20 04:33:22;;;;;;;5.87;5.30;;;;;;;10.86;100.00;100339.00;6108219;28;20243;-73
2023/11/20 04:36:44;;;;;;;4.57;4.17;;;;;;;10.99;100.00;100344.84;6107281;28;20240;-73
2023/11/20 04:40:13;;;;;;;8.00;5.47;;;;;;;10.95;100.00;100343.47;6108692;28;20546;-73
2023/11/20 04:43:33;;;;;;;5.30;4.63;;;;;;;10.96;100.00;100342.47;6104655;28;20239;-72
2023/11/20 04:46:56;;;;;;;5.47;4.30;;;;;;;10.88;100.00;100350.47;6107914;28;20240;-74
2023/11/20 04:50:17;;;;;;;7.67;6.00;;;;;;;10.96;100.00;100357.81;6107326;28;20290;-73
2023/11/20 04:53:38;;;;;;;5.30;4.80;;;;;;;10.95;100.00;100350.72;6108014;28;20232;-74
2023/11/20 04:57:09;;;;;;;6.53;5.93;;;;;;;10.97;100.00;100343.34;6106622;28;20228;-75
2023/11/20 05:00:30;;;;;;;6.27;4.63;;;;;;;11.00;100.00;100349.25;6104910;28;20618;-74
2023/11/20 05:03:52;;;;;;;5.93;4.77;;;;;;;11.03;100.00;100348.13;6107639;28;20566;-73
2023/11/20 05:07:13;;;;;;;5.67;3.97;;;;;;;11.07;100.00;100355.75;6105791;28;20284;-73
2023/11/20 05:10:34;;;;;;;5.93;4.90;;;;;;;11.11;100.00;100362.53;6121579;28;20244;-73
2023/11/20 05:13:58;;;;;;;9.80;4.53;;;;;;;11.11;100.00;100353.59;6104107;28;20467;-73
2023/11/20 05:17:20;;;;;;;4.77;3.67;;;;;;;11.06;100.00;100364.84;6109160;28;20243;-74
2023/11/20 05:20:47;;;;;;;5.40;4.10;;;;;;;11.11;100.00;100364.38;6105601;28;20244;-72
2023/11/20 05:24:09;;;;;;;7.10;4.43;;;;;;;11.06;100.00;100367.53;6104018;28;20323;-73
2023/11/20 05:27:30;;;;;;;4.50;4.03;;;;;;;10.96;100.00;100372.16;6107020;28;20243;-72
2023/11/20 05:30:51;;;;;;;4.13;3.80;;;;;;;11.02;100.00;100378.78;6102849;28;20236;-73
2023/11/20 05:34:14;;;;;;;6.53;4.37;;;;;;;11.07;100.00;100373.78;6103987;28;20323;-73
2023/11/20 05:37:36;;;;;;;5.57;3.50;;;;;;;11.15;100.00;100380.13;6107874;28;20263;-74
2023/11/20 05:40:58;;;;;;;4.13;3.67;;;;;;;11.16;100.00;100372.84;6107621;28;20227;-73
2023/11/20 05:44:19;;;;;;;5.40;3.40;;;;;;;11.22;100.00;100372.28;6106104;28;20239;-74
2023/11/20 05:47:40;;;;;;;4.20;3.80;;;;;;;11.25;100.00;100372.81;6103285;28;20247;-73
2023/11/20 05:51:01;;;;;;;5.43;4.33;;;;;;;11.19;100.00;100372.56;6102071;28;20535;-72
2023/11/20 05:54:23;;;;;;;5.30;4.13;;;;;;;11.13;100.00;100375.88;6100701;28;21148;-73
2023/11/20 05:57:44;;;;;;;4.90;4.30;;;;;;;11.07;100.00;100381.88;6102681;28;20236;-74
2023/11/20 06:01:05;;;;;;;5.43;4.70;;;;;;;11.02;100.00;100386.88;6094093;28;20238;-74
2023/11/20 06:04:26;;;;;;;3.40;3.10;;;;;;;11.05;100.00;100386.56;6103896;28;20231;-73
2023/11/20 06:07:47;;;;;;;5.30;4.73;;;;;;;11.11;100.00;100385.97;6104956;28;20232;-73
2023/11/20 06:11:19;;;;;;;5.40;4.33;;;;;;;11.07;100.00;100384.56;6096878;28;20236;-73
2023/11/20 06:14:41;;;;;;;4.40;4.00;;;;;;;11.13;100.00;100382.13;6104909;28;20228;-75
2023/11/20 06:18:02;;;;;;;4.83;4.33;;;;;;;11.07;100.00;100388.13;6100248;28;20236;-73
2023/11/20 06:21:23;;;;;;;6.13;4.93;;;;;;;11.05;100.00;100391.97;6096937;28;20351;-73
2023/11/20 06:24:44;;;;;;;6.33;4.07;;;;;;;11.09;100.00;100391.53;6105816;28;20259;-72
2023/11/20 06:28:06;;;;;;;5.93;3.93;;;;;;;11.15;100.00;100387.34;6092141;28;20248;-73
2023/11/20 06:31:30;;;;;;;6.63;4.47;;;;;;;11.16;100.00;100399.84;6101161;28;20319;-73
2023/11/20 06:34:51;;;;;;;6.47;5.87;;;;;;;11.13;100.00;100394.75;6094638;28;21639;-71
2023/11/20 06:38:12;;;;;;;5.60;4.43;;;;;;;11.11;100.00;100400.31;6094700;28;20235;-73
2023/11/20 06:41:33;;;;;;;6.70;4.60;;;;;;;11.12;100.00;100401.13;6105008;28;20227;-72
2023/11/20 06:44:55;;;;;;;5.50;4.90;;;;;;;11.16;100.00;100402.53;6100371;28;20236;-69
2023/11/20 06:48:16;;;;;;;7.20;5.30;;;;;;;11.12;100.00;100412.78;6109399;28;20268;-71
2023/11/20 06:51:37;;;;;;;5.93;5.33;;;;;;;11.15;100.00;100423.28;6108951;28;20256;-70
2023/11/20 06:54:58;;;;;;;7.10;4.53;;;;;;;11.17;100.00;100423.13;6105133;28;20228;-70
2023/11/20 06:58:19;;;;;;;6.00;5.40;;;;;;;11.13;100.00;100430.69;6102011;28;20232;-68
2023/11/20 07:01:45;;;;;;;5.43;4.87;;;;;;;11.20;100.00;100433.63;6105755;28;20611;-69
2023/11/20 07:05:07;;;;;;;7.17;5.33;;;;;;;11.20;100.00;100442.56;6102844;28;20240;-71
2023/11/20 07:08:28;;;;;;;7.13;4.93;;;;;;;11.32;100.00;100447.75;6106325;28;20626;-71
2023/11/20 07:11:49;;;;;;;6.67;5.60;;;;;;;11.30;100.00;100444.34;6110938;28;20228;-69
2023/11/20 07:15:10;;;;;;;7.07;6.30;;;;;;;11.28;100.00;100452.59;6110559;28;20240;-69
2023/11/20 07:18:33;;;;;;;4.97;4.47;;;;;;;11.33;100.00;100450.28;6101889;28;20240;-69
2023/11/20 07:21:54;;;;;;;8.03;5.80;;;;;;;11.35;100.00;100455.56;6108960;28;20228;-69
2023/11/20 07:25:16;;;;;;;5.93;5.43;;;;;;;11.21;100.00;100451.50;6113358;28;20232;-70
2023/11/20 07:28:36;;;;;;;6.60;5.70;;;;;;;11.16;100.00;100451.94;6113068;28;20236;-70
2023/11/20 07:31:57;;;;;;;7.43;6.30;;;;;;;11.18;100.00;100455.34;6108265;28;20524;-69
2023/11/20 07:35:20;;;;;;;7.63;6.10;;;;;;;11.32;100.00;100456.69;6115174;28;20224;-72
2023/11/20 07:38:41;;;;;;;6.30;5.70;;;;;;;11.46;100.00;100461.56;6105521;28;20236;-72
2023/11/20 07:42:02;;;;;;;9.43;5.47;;;;;;;11.38;100.00;100460.63;6108808;28;20559;-72
2023/11/20 07:45:23;;;;;;;6.40;5.60;;;;;;;11.47;100.00;100459.72;6111695;28;20262;-70
2023/11/20 07:48:45;;;;;;;6.60;5.80;;;;;;;11.59;100.00;100463.91;6112834;28;20236;-71
2023/11/20 07:52:09;;;;;;;8.37;6.10;;;;;;;11.55;100.00;100465.22;6105530;28;20331;-72
2023/11/20 07:55:30;;;;;;;7.90;5.60;;;;;;;11.56;100.00;100465.06;6104839;28;20236;-70
2023/11/20 07:58:52;;;;;;;11.20;7.17;;;;;;;11.65;100.00;100471.38;6103116;28;20251;-69
2023/11/20 08:02:13;;;;;;;7.37;6.47;;;;;;;11.64;100.00;100473.22;6106969;28;20224;-71
2023/11/20 08:05:34;;;;;;;10.50;6.50;;;;;;;11.65;100.00;100471.38;6111889;28;20232;-72
2023/11/20 08:08:56;;;;;;;7.40;6.27;;;;;;;11.65;100.00;100474.09;6105577;28;20413;-72
2023/11/20 08:12:17;;;;;;;7.13;6.43;;;;;;;11.58;100.00;100478.38;6105879;28;20232;-69
2023/11/20 08:15:38;;;;;;;8.00;6.40;;;;;;;11.52;100.00;100476.31;6110793;28;20533;-70
2023/11/20 08:19:02;;;;;;;7.70;6.47;;;;;;;11.65;100.00;100479.50;6111017;28;21038;-70
2023/11/20 08:22:23;;;;;;;8.37;6.47;;;;;;;11.74;100.00;100482.19;6116834;28;20239;-69
2023/11/20 08:25:45;;;;;;;7.43;6.73;;;;;;;11.66;100.00;100484.75;6106502;28;20503;-70
2023/11/20 08:29:06;;;;;;;8.40;7.40;;;;;;;11.60;100.00;100488.03;6106007;28;20244;-70
2023/11/20 08:32:28;;;;;;;8.03;7.23;;;;;;;11.59;100.00;100486.34;6115994;28;20602;-69
2023/11/20 08:35:49;;;;;;;11.23;8.50;;;;;;;11.62;100.00;100491.44;6113026;28;20247;-70
2023/11/20 08:39:14;;;;;;;8.23;7.40;;;;;;;11.65;100.00;100487.59;6106499;28;20319;-70
2023/11/20 08:42:37;;;;;;;9.30;6.60;;;;;;;11.71;100.00;100497.81;6107825;28;20242;-73
2023/11/20 08:45:57;;;;;;;10.07;8.50;;;;;;;11.82;100.00;100493.06;6100157;28;20232;-73
2023/11/20 08:49:18;;;;;;;9.20;6.97;;;;;;;11.85;100.00;100495.44;6104662;28;20264;-72
2023/11/20 08:52:39;;;;;;;9.40;6.93;;;;;;;11.86;100.00;100496.28;6108604;28;20247;-73
2023/11/20 08:56:02;;;;;;;7.37;6.70;;;;;;;11.89;100.00;100490.59;6113328;28;20622;-72
2023/11/20 08:59:25;;;;;;;7.17;6.47;;;;;;;12.04;100.00;100491.72;6116449;28;20231;-73
2023/11/20 09:02:47;;;;;;;8.53;6.60;;;;;;;12.12;100.00;100485.56;6113049;28;20240;-73
2023/11/20 09:06:09;;;;;;;6.83;6.13;;;;;;;12.31;100.00;100483.50;6109309;28;20232;-72
2023/11/20 09:09:30;;;;;;;9.33;6.07;;;;;;;12.38;100.00;100481.03;6107489;28;20236;-73
2023/11/20 09:12:51;;;;;;;7.97;5.57;;;;;;;12.35;100.00;100489.47;6109549;28;20236;-74
2023/11/20 09:16:13;;;;;;;7.07;6.43;;;;;;;12.30;100.00;100486.38;6103849;28;20224;-72
2023/11/20 09:19:34;;;;;;;8.70;7.00;;;;;;;12.23;100.00;100496.97;6107911;28;20228;-73
2023/11/20 09:22:55;;;;;;;7.73;5.97;;;;;;;12.21;100.00;100500.81;6109801;28;20259;-72
2023/11/20 09:26:16;;;;;;;12.00;7.33;;;;;;;12.15;100.00;100496.03;6114098;28;20235;-73
2023/11/20 09:29:37;;;;;;;10.00;7.33;;;;;;;12.21;100.00;100495.41;6115854;28;20601;-74
2023/11/20 09:33:00;;;;;;;12.87;10.23;;;;;;;12.23;100.00;100502.38;6114123;28;20231;-72
2023/11/20 09:36:21;;;;;;;13.97;8.67;;;;;;;12.35;100.00;100493.00;6099104;28;20330;-73
2023/11/20 09:39:44;;;;;;;7.90;6.73;;;;;;;12.42;100.00;100490.53;6112390;28;20232;-72
2023/11/20 09:43:07;;;;;;;10.30;7.60;;;;;;;12.51;100.00;100495.00;6114392;28;24172;-73
2023/11/20 09:46:33;;;;;;;10.40;9.07;;;;;;;12.52;100.00;100493.97;6111876;28;20507;-72
2023/11/20 09:49:56;;;;;;;8.60;7.70;;;;;;;12.75;100.00;100487.03;6102703;28;20323;-73
2023/11/20 09:53:17;;;;;;;8.43;6.50;;;;;;;12.83;100.00;100490.66;6114027;28;20227;-73
2023/11/20 09:56:39;;;;;;;10.37;8.50;;;;;;;12.79;100.00;100496.53;6111296;28;20243;-73
2023/11/20 10:00:00;;;;;;;9.17;8.17;;;;;;;12.78;100.00;100493.00;6111436;28;20330;-73
2023/11/20 10:03:21;;;;;;;12.37;8.93;;;;;;;12.75;100.00;100500.56;6098392;28;20239;-72
2023/11/20 10:06:45;;;;;;;8.13;6.87;;;;;;;12.74;100.00;100491.63;6113857;28;20610;-72
2023/11/20 10:10:06;;;;;;;9.60;7.63;;;;;;;12.67;100.00;100495.97;6107292;28;20250;-72
2023/11/20 10:13:27;;;;;;;9.30;6.97;;;;;;;12.74;100.00;100491.63;6121256;28;20660;-73
2023/11/20 10:16:50;;;;;;;6.57;5.73;;;;;;;12.71;100.00;100486.53;6102304;28;20556;-73
2023/11/20 10:20:11;;;;;;;8.23;6.67;;;;;;;12.70;100.00;100497.50;6107798;28;20502;-73
2023/11/20 10:23:33;;;;;;;11.67;7.30;;;;;;;12.58;100.00;100496.03;6117124;28;20256;-72
2023/11/20 10:26:54;;;;;;;9.87;7.00;;;;;;;12.44;100.00;100488.50;6107408;28;20231;-73
2023/11/20 10:30:15;;;;;;;9.47;7.23;;;;;;;12.36;100.00;100494.72;6115032;28;20239;-72
2023/11/20 10:33:37;;;;;;;7.17;6.47;;;;;;;12.34;100.00;100487.75;6114248;28;20236;-69
2023/11/20 10:37:08;;;;;;;9.73;6.97;;;;;;;12.49;100.00;100489.75;6110786;28;20223;-72
2023/11/20 10:40:31;;;;;;;8.97;6.93;;;;;;;12.59;100.00;100482.38;6115184;28;20239;-72
2023/11/20 10:43:51;;;;;;;8.87;5.97;;;;;;;12.50;100.00;100488.72;6112391;28;20240;-69
2023/11/20 10:47:15;;;;;;;8.47;7.40;;;;;;;12.45;100.00;100482.13;6112375;28;20232;-70
2023/11/20 10:50:37;;;;;;;8.67;7.77;;;;;;;12.49;100.00;100478.09;6108970;28;20228;-70
2023/11/20 10:54:00;;;;;;;8.33;7.03;;;;;;;12.18;100.00;100475.00;6106850;28;20315;-70
2023/11/20 10:57:22;;;;;;;13.67;8.00;;;;;;;12.24;100.00;100482.47;6116777;28;20517;-71
2023/11/20 11:00:45;;;;;;;9.73;8.40;;;;;;;12.12;100.00;100481.00;6113374;28;20265;-71
2023/11/20 11:04:13;;;;;;;11.30;7.77;;;;;;;11.87;100.00;100484.47;6119367;28;20240;-69
2023/11/20 11:07:38;;;;;;;8.20;6.83;;;;;;;11.78;100.00;100472.75;6115458;28;20243;-70
2023/11/20 11:10:59;;;;;;;9.37;8.37;;;;;;;11.66;100.00;100476.66;6105401;28;20263;-69
2023/11/20 11:14:22;;;;;;;10.30;8.37;;;;;;;11.65;100.00;100483.06;6102108;28;20236;-69
2023/11/20 11:17:47;;;;;;;9.17;7.40;;;;;;;11.63;100.00;100478.78;6113915;28;20752;-69
2023/11/20 11:21:11;;;;;;;8.87;7.67;;;;;;;11.57;100.00;100480.25;6107061;28;20231;-70
2023/11/20 11:24:33;;;;;;;12.27;10.03;;;;;;;11.65;100.00;100484.91;6109406;28;20263;-70
2023/11/20 11:27:57;;;;;;;8.70;6.47;;;;;;;11.90;100.00;100474.22;6123320;28;22734;-70
2023/11/20 11:31:21;;;;;;;11.37;8.30;;;;;;;11.75;100.00;100470.34;6112244;28;20512;-71
2023/11/20 11:35:05;;;;;;;11.87;7.53;;;;;;;11.65;100.00;100466.84;6112576;28;20235;-70
2023/11/20 11:38:37;;;;;;;8.93;7.33;;;;;;;11.72;100.00;100465.25;6111527;28;20296;-70
2023/11/20 11:42:09;;;;;;;11.17;9.20;;;;;;;11.85;100.00;100467.56;6109960;28;20243;-69
2023/11/20 11:45:30;;;;;;;9.80;6.97;;;;;;;11.97;100.00;100460.94;6105273;28;20589;-68
2023/11/20 11:48:54;;;;;;;9.77;7.60;;;;;;;12.07;100.00;100461.72;6108242;28;20256;-72
2023/11/20 11:52:26;;;;;;;10.10;7.90;;;;;;;12.22;100.00;100452.03;6103522;28;20246;-70
2023/11/20 11:55:49;;;;;;;7.37;6.43;;;;;;;12.16;100.00;100463.44;6102483;28;20239;-70
2023/11/20 11:59:17;;;;;;;7.50;5.90;;;;;;;12.15;100.00;100469.88;6113539;28;20248;-69
2023/11/20 12:02:54;;;;;;;6.47;5.83;;;;;;;12.07;100.00;100459.00;6111586;28;20231;-72
2023/11/20 12:06:18;;;;;;;8.03;5.43;;;;;;;12.11;100.00;100464.94;6114474;28;20259;-72
2023/11/20 12:09:57;;;;;;;7.00;4.80;;;;;;;11.86;100.00;100462.03;6110079;28;20555;-70
2023/11/20 12:13:19;;;;;;;5.80;5.30;;;;;;;11.99;100.00;100458.94;6111406;28;20239;-70
2023/11/20 12:16:42;;;;;;;7.90;5.33;;;;;;;11.72;100.00;100462.53;6108815;28;20231;-70
2023/11/20 12:20:05;;;;;;;7.27;6.07;;;;;;;11.66;100.00;100456.91;6113423;28;20224;-72
2023/11/20 12:23:28;;;;;;;9.60;5.80;;;;;;;11.65;100.00;100466.00;6110891;28;20235;-69
2023/11/20 12:26:50;;;;;;;7.77;4.70;;;;;;;11.39;100.00;100459.66;6111062;28;20240;-69
2023/11/20 12:30:13;;;;;;;5.33;4.20;;;;;;;10.96;100.00;100458.44;6116661;28;20616;-70
2023/11/20 12:33:35;;;;;;;4.13;3.13;;;;;;;11.03;100.00;100459.56;6110142;28;20243;-69
2023/11/20 12:36:56;;;;;;;9.60;5.77;;;;;;;11.01;100.00;100456.13;6115473;28;20227;-70
2023/11/20 12:40:18;;;;;;;8.67;4.13;;;;;;;10.91;100.00;100465.28;6110334;28;20263;-73
2023/11/20 12:43:39;;;;;;;3.57;2.33;;;;;;;10.79;100.00;100466.44;6109680;28;20284;-69
2023/11/20 12:47:04;;;;;;;3.47;3.13;;;;;;;10.65;100.00;100470.50;6106306;28;20621;-70
2023/11/20 12:50:25;;;;;;;4.53;2.50;;;;;;;10.50;100.00;100471.94;6111988;28;20263;-69
2023/11/20 12:53:47;;;;;;;3.30;2.13;;;;;;;10.52;100.00;100475.34;6100843;28;20605;-70
2023/11/20 12:57:10;;;;;;;3.00;1.90;;;;;;;10.51;100.00;100462.88;6111817;28;20252;-71
2023/11/20 13:00:31;;;;;;;2.87;1.97;;;;;;;10.68;100.00;100463.97;6102831;28;20260;-71
2023/11/20 13:03:52;;;;;;;10.30;2.90;;;;;;;10.65;100.00;100462.41;6114005;28;20228;-71
2023/11/20 13:07:13;;;;;;;4.00;2.73;;;;;;;10.62;100.00;100464.56;6112609;28;20236;-68
2023/11/20 13:10:35;;;;;;;3.67;2.40;;;;;;;10.56;100.00;100462.41;6109986;28;20464;-70
2023/11/20 13:13:58;;;;;;;5.13;3.80;;;;;;;10.59;100.00;100465.69;6110250;28;20505;-71
2023/11/20 13:17:19;;;;;;;2.93;2.57;;;;;;;10.58;100.00;100457.72;6106517;28;20252;-69
2023/11/20 13:20:44;;;;;;;3.93;3.40;;;;;;;10.72;100.00;100466.19;6110910;28;20235;-69
2023/11/20 13:24:09;;;;;;;2.63;2.50;;;;;;;10.84;100.00;100470.44;6107397;28;22620;-70
2023/11/20 13:27:31;;;;;;;4.13;3.73;;;;;;;10.95;100.00;100475.63;6105941;28;20251;-68
2023/11/20 13:31:03;;;;;;;3.13;2.90;;;;;;;11.02;100.00;100481.28;6103005;28;20231;-70
2023/11/20 13:34:24;;;;;;;4.03;3.07;;;;;;;10.88;100.00;100479.06;6109239;28;20235;-69
2023/11/20 13:37:46;;;;;;;4.00;3.40;;;;;;;10.78;100.00;100494.44;6108133;28;20653;-70
2023/11/20 13:41:08;;;;;;;3.83;3.50;;;;;;;10.50;100.00;100498.03;6111721;28;20330;-68
2023/11/20 13:44:29;;;;;;;2.93;2.70;;;;;;;10.43;100.00;100490.53;6103278;28;20227;-68
2023/11/20 13:47:51;;;;;;;3.20;2.70;;;;;;;10.50;100.00;100487.25;6107992;28;20527;-73
2023/11/20 13:51:12;;;;;;;3.10;2.10;;;;;;;10.47;100.00;100488.41;6108650;28;20665;-70
2023/11/20 13:54:33;;;;;;;3.23;2.37;;;;;;;10.74;100.00;100482.25;6105735;28;20820;-70
2023/11/20 13:57:56;;;;;;;3.30;2.13;;;;;;;11.08;100.00;100486.91;6110950;28;20231;-69
2023/11/20 14:01:17;;;;;;;3.20;2.47;;;;;;;11.18;100.00;100487.72;6113762;28;20236;-70
2023/11/20 14:04:41;;;;;;;4.57;3.00;;;;;;;11.18;100.00;100487.72;6110951;28;20231;-69
2023/11/20 14:08:04;;;;;;;3.87;3.10;;;;;;;10.96;100.00;100498.03;6109149;28;20228;-69
2023/11/20 14:11:25;;;;;;;6.07;3.67;;;;;;;10.84;100.00;100496.53;6110553;28;20235;-68
2023/11/20 14:14:46;;;;;;;2.40;2.20;;;;;;;10.71;100.00;100487.91;6117877;28;20251;-70
2023/11/20 14:18:09;;;;;;;2.60;2.40;;;;;;;10.95;100.00;100486.41;6108596;28;20232;-70
2023/11/20 14:21:32;;;;;;;4.10;2.97;;;;;;;11.10;100.00;100493.00;6113215;28;20633;-71
2023/11/20 14:24:53;;;;;;;3.83;3.53;;;;;;;11.11;100.00;100491.19;6105023;28;20446;-72
2023/11/20 14:28:15;;;;;;;4.17;3.57;;;;;;;11.15;100.00;100495.28;6104215;28;20240;-70
2023/11/20 14:31:38;;;;;;;3.20;3.00;;;;;;;10.98;100.00;100490.66;6101543;28;20791;-69
2023/11/20 14:34:59;;;;;;;3.93;3.43;;;;;;;10.99;100.00;100495.88;6099492;28;20232;-71
2023/11/20 14:38:21;;;;;;;3.70;3.40;;;;;;;10.98;100.00;100494.22;6103718;28;21886;-73
2023/11/20 14:41:42;;;;;;;3.53;3.23;;;;;;;11.11;100.00;100497.44;6118861;28;20623;-69
2023/11/20 14:45:04;;;;;;;4.80;4.40;;;;;;;10.96;100.00;100498.91;6100221;28;20233;-71
2023/11/20 14:48:26;;;;;;;6.63;4.43;;;;;;;10.83;100.00;100502.91;6105222;28;20473;-72
2023/11/20 14:51:46;;;;;;;5.67;5.13;;;;;;;10.88;100.00;100501.50;6107008;28;20244;-70
2023/11/20 14:55:10;;;;;;;4.17;3.80;;;;;;;11.06;100.00;100499.72;6099349;28;20311;-70
2023/11/20 14:58:34;;;;;;;4.10;3.40;;;;;;;11.12;100.00;100495.56;6095981;28;20327;-68
2023/11/20 15:01:55;;;;;;;9.73;4.90;;;;;;;11.08;100.00;100503.09;6108263;28;20235;-69
2023/11/20 15:05:17;;;;;;;3.03;2.83;;;;;;;10.77;100.00;100504.34;6106975;28;20763;-69
2023/11/20 15:08:38;;;;;;;4.00;3.23;;;;;;;10.59;100.00;100506.13;6107092;28;20993;-69
2023/11/20 15:12:03;;;;;;;1.90;1.80;;;;;;;10.68;100.00;100505.22;6122456;28;20236;-68
2023/11/20 15:15:24;;;;;;;2.17;1.97;;;;;;;10.59;100.00;100508.81;6107355;28;20693;-70
2023/11/20 15:18:45;;;;;;;1.77;1.43;;;;;;;10.69;100.00;100516.88;6115045;28;20609;-70
2023/11/20 15:22:06;;;;;;;1.70;1.57;;;;;;;10.51;100.00;100519.47;6113860;28;20228;-69
2023/11/20 15:25:27;;;;;;;2.17;1.97;;;;;;;10.52;100.00;100523.00;6107364;28;20237;-69
2023/11/20 15:28:50;;;;;;;1.57;1.47;;;;;;;10.40;100.00;100523.19;6106965;28;20326;-70